createdAt,value
2019-02-15T00:00:20.382Z,59.47
2019-02-15T00:01:20.371Z,58.75
2019-02-15T00:02:20.361Z,57.92
2019-02-15T00:03:20.371Z,58.95
2019-02-15T00:04:20.341Z,58.64
2019-02-15T00:05:20.333Z,58.33
2019-02-15T00:06:20.316Z,56.99
2019-02-15T00:07:20.305Z,58.12
2019-02-15T00:08:20.315Z,58.02
2019-02-15T00:09:20.284Z,57.71
2019-02-15T00:10:20.273Z,57.30
2019-02-15T00:11:20.272Z,58.12
2019-02-15T00:12:20.251Z,57.40
2019-02-15T00:13:20.262Z,56.99
2019-02-15T00:14:20.229Z,57.37
2019-02-15T00:15:20.217Z,57.37
2019-02-15T00:16:20.220Z,57.17
2019-02-15T00:17:20.213Z,58.33
2019-02-15T00:18:20.207Z,58.44
2019-02-15T00:19:20.180Z,57.81
2019-02-15T00:20:20.163Z,56.85
2019-02-15T00:21:20.156Z,56.34
2019-02-15T00:22:20.140Z,58.75
2019-02-15T00:23:20.177Z,58.44
2019-02-15T00:24:20.125Z,58.23
2019-02-15T00:25:20.112Z,58.44
2019-02-15T00:26:20.103Z,58.31
2019-02-15T00:27:20.088Z,57.06
2019-02-15T00:28:20.097Z,57.58
2019-02-15T00:29:20.110Z,57.50
2019-02-15T00:30:20.057Z,58.23
2019-02-15T00:31:20.046Z,58.33
2019-02-15T00:32:20.034Z,58.54
2019-02-15T00:33:20.048Z,59.27
2019-02-15T00:34:20.012Z,58.54
2019-02-15T00:35:20.011Z,59.61
2019-02-15T00:36:19.993Z,58.57
2019-02-15T00:37:19.980Z,59.91
2019-02-15T00:38:19.991Z,59.30
2019-02-15T00:39:19.958Z,58.59
2019-02-15T00:40:19.946Z,59.42
2019-02-15T00:41:19.944Z,59.32
2019-02-15T00:42:19.934Z,59.63
2019-02-15T00:43:22.308Z,59.42
2019-02-15T00:44:19.902Z,59.71
2019-02-15T00:45:19.892Z,59.71
2019-02-15T00:46:19.879Z,60.05
2019-02-15T00:47:19.884Z,59.63
2019-02-15T00:48:19.859Z,59.63
2019-02-15T00:49:19.869Z,60.77
2019-02-15T00:50:19.836Z,59.42
2019-02-15T00:51:19.829Z,59.63
2019-02-15T00:52:19.814Z,59.22
2019-02-15T00:53:19.808Z,59.01
2019-02-15T00:54:19.816Z,59.84
2019-02-15T00:55:19.781Z,59.84
2019-02-15T00:56:19.770Z,59.74
2019-02-15T00:57:19.760Z,60.05
2019-02-15T00:58:19.749Z,58.80
2019-02-15T00:59:19.773Z,59.22
2019-02-15T01:00:19.728Z,58.73
2019-02-15T01:01:19.715Z,58.59
2019-02-15T01:02:19.706Z,59.87
2019-02-15T01:03:19.694Z,58.28
2019-02-15T01:04:19.719Z,58.91
2019-02-15T01:05:19.674Z,59.01
2019-02-15T01:06:19.661Z,58.18
2019-02-15T01:07:19.652Z,58.36
2019-02-15T01:08:19.641Z,58.57
2019-02-15T01:09:19.652Z,58.15
2019-02-15T01:10:19.632Z,58.88
2019-02-15T01:11:19.605Z,58.26
2019-02-15T01:12:19.597Z,58.78
2019-02-15T01:13:19.586Z,59.30
2019-02-15T01:14:19.598Z,58.57
2019-02-15T01:15:19.563Z,58.67
2019-02-15T01:16:19.567Z,58.44
2019-02-15T01:17:19.544Z,58.47
2019-02-15T01:18:19.531Z,58.54
2019-02-15T01:19:19.541Z,57.81
2019-02-15T01:20:19.508Z,58.33
2019-02-15T01:21:19.501Z,58.23
2019-02-15T01:22:19.500Z,57.40
2019-02-15T01:23:19.476Z,60.20
2019-02-15T01:24:19.487Z,58.75
2019-02-15T01:25:19.457Z,59.37
2019-02-15T01:26:19.446Z,59.47
2019-02-15T01:27:19.434Z,58.64
2019-02-15T01:28:19.426Z,59.06
2019-02-15T01:29:19.444Z,59.99
2019-02-15T01:30:19.399Z,59.16
2019-02-15T01:31:19.387Z,60.10
2019-02-15T01:32:19.376Z,59.27
2019-02-15T01:33:19.366Z,59.09
2019-02-15T01:34:19.379Z,59.81
2019-02-15T01:35:19.355Z,59.91
2019-02-15T01:36:19.333Z,59.71
2019-02-15T01:37:19.322Z,59.71
2019-02-15T01:38:19.313Z,60.02
2019-02-15T01:39:19.327Z,59.61
2019-02-15T01:40:19.292Z,60.22
2019-02-15T01:41:19.287Z,58.98
2019-02-15T01:42:19.275Z,59.30
2019-02-15T01:43:19.265Z,59.30
2019-02-15T01:44:19.269Z,59.91
2019-02-15T01:45:19.242Z,59.81
2019-02-15T01:46:19.224Z,60.43
2019-02-15T01:47:19.216Z,60.53
2019-02-15T01:48:19.203Z,59.71
2019-02-15T01:49:19.222Z,59.61
2019-02-15T01:50:19.181Z,59.71
2019-02-15T01:51:19.168Z,59.61
2019-02-15T01:52:19.157Z,60.64
2019-02-15T01:53:19.147Z,59.61
2019-02-15T01:54:19.158Z,59.71
2019-02-15T01:55:19.133Z,59.58
2019-02-15T01:56:19.113Z,59.68
2019-02-15T01:57:19.102Z,59.47
2019-02-15T01:58:19.094Z,59.40
2019-02-15T01:59:19.106Z,60.22
2019-02-15T02:00:19.080Z,60.12
2019-02-15T02:01:19.067Z,59.61
2019-02-15T02:02:19.048Z,61.36
2019-02-15T02:03:19.039Z,60.02
2019-02-15T02:04:19.048Z,59.16
2019-02-15T02:05:19.025Z,60.02
2019-02-15T02:06:19.007Z,60.20
2019-02-15T02:07:19.013Z,59.50
2019-02-15T02:08:18.982Z,60.43
2019-02-15T02:09:18.993Z,59.78
2019-02-15T02:10:18.964Z,59.40
2019-02-15T02:11:18.958Z,58.64
2019-02-15T02:12:18.939Z,58.98
2019-02-15T02:13:18.939Z,59.68
2019-02-15T02:14:18.940Z,58.95
2019-02-15T02:15:18.906Z,58.44
2019-02-15T02:16:18.902Z,59.68
2019-02-15T02:17:18.891Z,59.27
2019-02-15T02:18:18.875Z,58.75
2019-02-15T02:19:18.898Z,59.06
2019-02-15T02:20:18.852Z,59.47
2019-02-15T02:21:18.853Z,58.54
2019-02-15T02:22:18.829Z,58.12
2019-02-15T02:23:18.818Z,58.12
2019-02-15T02:24:18.833Z,58.64
2019-02-15T02:25:18.813Z,58.12
2019-02-15T02:26:18.789Z,58.75
2019-02-15T02:27:18.777Z,58.02
2019-02-15T02:28:18.765Z,58.75
2019-02-15T02:29:18.775Z,59.34
2019-02-15T02:30:18.744Z,59.06
2019-02-15T02:31:18.740Z,58.64
2019-02-15T02:32:18.737Z,58.54
2019-02-15T02:33:18.711Z,59.16
2019-02-15T02:34:18.701Z,59.14
2019-02-15T02:35:18.715Z,58.44
2019-02-15T02:36:18.678Z,59.89
2019-02-15T02:37:18.668Z,59.55
2019-02-15T02:38:18.682Z,59.89
2019-02-15T02:39:18.660Z,59.16
2019-02-15T02:40:18.673Z,59.96
2019-02-15T02:41:18.627Z,59.55
2019-02-15T02:42:18.622Z,58.31
2019-02-15T02:43:18.602Z,58.93
2019-02-15T02:44:18.604Z,59.45
2019-02-15T02:45:18.623Z,59.14
2019-02-15T02:46:18.571Z,59.58
2019-02-15T02:47:18.556Z,58.72
2019-02-15T02:48:18.549Z,59.78
2019-02-15T02:49:18.537Z,60.41
2019-02-15T02:50:18.568Z,59.55
2019-02-15T02:51:18.514Z,60.10
2019-02-15T02:52:18.503Z,59.68
2019-02-15T02:53:18.496Z,58.85
2019-02-15T02:54:18.480Z,59.89
2019-02-15T02:55:18.495Z,59.47
2019-02-15T02:56:18.470Z,59.78
2019-02-15T02:57:18.459Z,59.68
2019-02-15T02:58:18.438Z,59.99
2019-02-15T02:59:18.427Z,60.10
2019-02-15T03:00:18.435Z,61.13
2019-02-15T03:01:18.405Z,60.41
2019-02-15T03:02:18.395Z,59.68
2019-02-15T03:03:18.392Z,60.82
2019-02-15T03:04:18.371Z,60.12
2019-02-15T03:05:18.383Z,60.10
2019-02-15T03:06:18.352Z,61.86
2019-02-15T03:07:18.343Z,61.57
2019-02-15T03:08:18.327Z,61.44
2019-02-15T03:09:18.335Z,60.82
2019-02-15T03:10:18.330Z,60.82
2019-02-15T03:11:18.295Z,61.44
2019-02-15T03:12:18.285Z,61.26
2019-02-15T03:13:18.273Z,61.16
2019-02-15T03:14:18.270Z,62.61
2019-02-15T03:15:18.285Z,62.71
2019-02-15T03:16:18.240Z,61.29
2019-02-15T03:17:18.231Z,62.43
2019-02-15T03:18:18.220Z,62.23
2019-02-15T03:19:18.206Z,62.33
2019-02-15T03:20:18.229Z,62.74
2019-02-15T03:21:19.393Z,63.37
2019-02-15T03:22:18.175Z,62.74
2019-02-15T03:23:18.163Z,62.77
2019-02-15T03:24:18.154Z,64.02
2019-02-15T03:25:18.163Z,64.23
2019-02-15T03:26:18.133Z,65.70
2019-02-15T03:27:18.133Z,64.67
2019-02-15T03:28:18.111Z,64.87
2019-02-15T03:29:18.097Z,64.46
2019-02-15T03:30:18.132Z,64.56
2019-02-15T03:31:18.083Z,63.84
2019-02-15T03:32:18.067Z,65.60
2019-02-15T03:33:18.091Z,64.98
2019-02-15T03:34:18.051Z,64.39
2019-02-15T03:35:18.055Z,64.04
2019-02-15T03:36:18.019Z,63.87
2019-02-15T03:37:18.018Z,64.87
2019-02-15T03:38:17.996Z,64.25
2019-02-15T03:39:17.998Z,64.04
2019-02-15T03:40:17.997Z,63.53
2019-02-15T03:41:17.964Z,63.71
2019-02-15T03:42:17.953Z,64.09
2019-02-15T03:43:17.941Z,62.98
2019-02-15T03:44:22.366Z,63.09
2019-02-15T03:45:17.954Z,63.06
2019-02-15T03:46:17.911Z,62.12
2019-02-15T03:47:17.903Z,61.91
2019-02-15T03:48:17.887Z,62.12
2019-02-15T03:49:17.879Z,61.19
2019-02-15T03:50:17.892Z,62.19
2019-02-15T03:51:17.870Z,62.30
2019-02-15T03:52:17.844Z,60.74
2019-02-15T03:53:17.834Z,62.09
2019-02-15T03:54:17.824Z,61.36
2019-02-15T03:55:17.834Z,61.29
2019-02-15T03:56:17.800Z,61.78
2019-02-15T03:57:17.797Z,60.43
2019-02-15T03:58:17.780Z,61.91
2019-02-15T03:59:17.775Z,62.02
2019-02-15T04:00:17.779Z,61.91
2019-02-15T04:01:17.753Z,62.23
2019-02-15T04:02:17.736Z,60.67
2019-02-15T04:03:17.733Z,60.98
2019-02-15T04:04:17.722Z,61.19
2019-02-15T04:05:17.723Z,62.95
2019-02-15T04:06:17.690Z,63.16
2019-02-15T04:07:17.685Z,63.06
2019-02-15T04:08:17.670Z,62.12
2019-02-15T04:09:17.682Z,62.46
2019-02-15T04:10:17.708Z,62.12
2019-02-15T04:11:17.651Z,62.02
2019-02-15T04:12:17.627Z,62.43
2019-02-15T04:13:17.615Z,61.74
2019-02-15T04:14:17.612Z,62.26
2019-02-15T04:15:17.594Z,62.15
2019-02-15T04:16:17.605Z,62.98
2019-02-15T04:17:17.578Z,62.67
2019-02-15T04:18:17.558Z,62.74
2019-02-15T04:19:17.557Z,62.77
2019-02-15T04:20:17.544Z,63.29
2019-02-15T04:21:17.552Z,63.71
2019-02-15T04:22:17.520Z,62.95
2019-02-15T04:23:17.509Z,63.68
2019-02-15T04:24:17.492Z,62.43
2019-02-15T04:25:17.482Z,63.06
2019-02-15T04:26:17.503Z,63.06
2019-02-15T04:27:17.459Z,62.95
2019-02-15T04:28:17.448Z,62.57
2019-02-15T04:29:17.449Z,62.77
2019-02-15T04:30:17.428Z,62.88
2019-02-15T04:31:17.435Z,63.63
2019-02-15T04:32:17.419Z,63.50
2019-02-15T04:33:17.394Z,63.60
2019-02-15T04:34:17.380Z,62.98
2019-02-15T04:35:17.374Z,64.23
2019-02-15T04:36:17.378Z,64.54
2019-02-15T04:37:17.348Z,64.02
2019-02-15T04:38:17.353Z,63.71
2019-02-15T04:39:17.327Z,63.92
2019-02-15T04:40:17.375Z,63.81
2019-02-15T04:41:17.327Z,63.01
2019-02-15T04:42:17.301Z,64.23
2019-02-15T04:43:17.281Z,64.33
2019-02-15T04:44:17.285Z,64.54
2019-02-15T04:45:17.261Z,64.67
2019-02-15T04:46:17.271Z,65.70
2019-02-15T04:47:17.236Z,65.50
2019-02-15T04:48:17.224Z,64.15
2019-02-15T04:49:17.212Z,65.81
2019-02-15T04:50:17.218Z,66.33
2019-02-15T04:51:17.213Z,66.44
2019-02-15T04:52:17.199Z,65.60
2019-02-15T04:53:17.172Z,65.42
2019-02-15T04:54:17.156Z,66.67
2019-02-15T04:55:17.149Z,67.50
2019-02-15T04:56:17.174Z,67.30
2019-02-15T04:57:17.122Z,66.88
2019-02-15T04:58:17.111Z,66.36
2019-02-15T04:59:17.102Z,66.22
2019-02-15T05:00:17.091Z,65.19
2019-02-15T05:01:17.105Z,65.53
2019-02-15T05:02:17.074Z,66.12
2019-02-15T05:03:19.461Z,65.94
2019-02-15T05:04:17.046Z,64.98
2019-02-15T05:05:17.040Z,66.15
2019-02-15T05:06:17.046Z,66.25
2019-02-15T05:07:17.013Z,67.09
2019-02-15T05:08:17.024Z,66.64
2019-02-15T05:09:16.992Z,66.75
2019-02-15T05:10:16.978Z,65.94
2019-02-15T05:11:16.993Z,66.99
2019-02-15T05:12:16.956Z,66.75
2019-02-15T05:13:16.944Z,65.91
2019-02-15T05:14:16.943Z,66.02
2019-02-15T05:15:16.922Z,66.33
2019-02-15T05:16:16.933Z,66.02
2019-02-15T05:17:16.901Z,65.91
2019-02-15T05:18:16.888Z,65.29
2019-02-15T05:19:16.877Z,65.91
2019-02-15T05:20:16.877Z,65.29
2019-02-15T05:21:16.878Z,64.67
2019-02-15T05:22:16.847Z,66.02
2019-02-15T05:23:16.834Z,66.75
2019-02-15T05:24:16.825Z,66.44
2019-02-15T05:25:16.814Z,65.91
2019-02-15T05:26:16.841Z,65.50
2019-02-15T05:27:16.790Z,65.42
2019-02-15T05:28:16.777Z,65.53
2019-02-15T05:29:16.771Z,65.63
2019-02-15T05:30:16.756Z,66.78
2019-02-15T05:31:16.769Z,66.36
2019-02-15T05:32:16.741Z,67.09
2019-02-15T05:33:16.721Z,65.91
2019-02-15T05:34:16.730Z,66.33
2019-02-15T05:35:16.704Z,66.22
2019-02-15T05:36:16.710Z,64.98
2019-02-15T05:37:16.695Z,64.56
2019-02-15T05:38:16.679Z,64.98
2019-02-15T05:39:16.655Z,64.25
2019-02-15T05:40:16.646Z,65.19
2019-02-15T05:41:16.656Z,65.29
2019-02-15T05:42:16.623Z,64.77
2019-02-15T05:43:16.619Z,64.56
2019-02-15T05:44:16.602Z,66.22
2019-02-15T05:45:16.587Z,64.64
2019-02-15T05:46:16.599Z,65.70
2019-02-15T05:47:16.568Z,65.60
2019-02-15T05:48:16.554Z,64.98
2019-02-15T05:49:16.552Z,64.15
2019-02-15T05:50:16.533Z,66.12
2019-02-15T05:51:16.546Z,64.87
2019-02-15T05:52:16.512Z,64.46
2019-02-15T05:53:16.498Z,65.08
2019-02-15T05:54:16.487Z,64.04
2019-02-15T05:55:16.488Z,65.91
2019-02-15T05:56:16.500Z,64.04
2019-02-15T05:57:16.455Z,64.25
2019-02-15T05:58:16.443Z,64.77
2019-02-15T05:59:16.431Z,64.77
2019-02-15T06:00:16.421Z,65.08
2019-02-15T06:01:16.421Z,65.39
2019-02-15T06:02:16.425Z,64.67
2019-02-15T06:03:16.396Z,64.85
2019-02-15T06:04:16.377Z,66.54
2019-02-15T06:05:16.370Z,64.67
2019-02-15T06:06:16.354Z,66.02
2019-02-15T06:07:16.377Z,64.36
2019-02-15T06:08:16.338Z,64.23
2019-02-15T06:09:16.322Z,64.64
2019-02-15T06:10:16.311Z,64.43
2019-02-15T06:11:16.302Z,64.64
2019-02-15T06:12:16.312Z,64.33
2019-02-15T06:13:16.353Z,64.23
2019-02-15T06:14:16.266Z,63.92
2019-02-15T06:15:16.259Z,64.23
2019-02-15T06:16:16.245Z,64.54
2019-02-15T06:17:16.257Z,63.81
2019-02-15T06:18:16.228Z,64.02
2019-02-15T06:19:16.210Z,64.20
2019-02-15T06:20:16.211Z,63.92
2019-02-15T06:21:16.231Z,64.12
2019-02-15T06:22:16.203Z,64.23
2019-02-15T06:23:16.165Z,64.09
2019-02-15T06:24:16.164Z,64.02
2019-02-15T06:25:16.164Z,64.30
2019-02-15T06:26:16.133Z,64.40
2019-02-15T06:27:16.147Z,64.64
2019-02-15T06:28:16.111Z,64.33
2019-02-15T06:29:16.102Z,66.20
2019-02-15T06:30:16.100Z,65.55
2019-02-15T06:31:16.089Z,64.20
2019-02-15T06:32:16.113Z,64.92
2019-02-15T06:33:16.076Z,64.72
2019-02-15T06:34:16.045Z,64.20
2019-02-15T06:35:16.034Z,63.78
2019-02-15T06:36:16.057Z,63.99
2019-02-15T06:37:16.039Z,64.09
2019-02-15T06:38:16.002Z,64.51
2019-02-15T06:39:16.012Z,64.30
2019-02-15T06:40:15.981Z,64.61
2019-02-15T06:41:15.970Z,64.61
2019-02-15T06:42:15.981Z,63.78
2019-02-15T06:43:15.946Z,64.30
2019-02-15T06:44:15.945Z,64.09
2019-02-15T06:45:24.414Z,64.17
2019-02-15T06:46:16.913Z,64.20
2019-02-15T06:47:15.930Z,64.27
2019-02-15T06:48:15.892Z,64.48
2019-02-15T06:49:15.888Z,64.17
2019-02-15T06:50:15.889Z,63.96
2019-02-15T06:51:15.871Z,65.10
2019-02-15T06:52:15.879Z,64.06
2019-02-15T06:53:15.848Z,64.27
2019-02-15T06:54:15.826Z,64.89
2019-02-15T06:55:15.815Z,64.17
2019-02-15T06:56:15.805Z,65.41
2019-02-15T06:57:15.828Z,65.52
2019-02-15T06:58:15.785Z,64.76
2019-02-15T06:59:15.773Z,64.45
2019-02-15T07:00:15.772Z,64.14
2019-02-15T07:01:15.751Z,64.03
2019-02-15T07:02:15.776Z,64.45
2019-02-15T07:03:15.737Z,64.55
2019-02-15T07:04:15.722Z,64.03
2019-02-15T07:05:15.709Z,64.55
2019-02-15T07:06:15.695Z,64.03
2019-02-15T07:07:15.708Z,62.89
2019-02-15T07:08:15.677Z,63.72
2019-02-15T07:09:15.685Z,63.48
2019-02-15T07:10:15.661Z,62.66
2019-02-15T07:11:15.643Z,62.42
2019-02-15T07:12:15.652Z,63.04
2019-02-15T07:13:15.618Z,61.98
2019-02-15T07:14:15.608Z,62.63
2019-02-15T07:15:15.625Z,62.94
2019-02-15T07:16:15.588Z,62.91
2019-02-15T07:17:15.599Z,62.81
2019-02-15T07:18:15.564Z,61.98
2019-02-15T07:19:15.559Z,62.81
2019-02-15T07:20:15.542Z,61.54
2019-02-15T07:21:15.539Z,61.51
2019-02-15T07:22:15.548Z,60.99
2019-02-15T07:23:15.532Z,61.20
2019-02-15T07:24:15.497Z,61.71
2019-02-15T07:25:15.489Z,60.16
2019-02-15T07:26:15.475Z,60.14
2019-02-15T07:27:15.492Z,59.93
2019-02-15T07:28:15.466Z,60.03
2019-02-15T07:29:15.454Z,59.72
2019-02-15T07:30:15.781Z,60.73
2019-02-15T07:31:15.419Z,59.59
2019-02-15T07:32:15.431Z,59.08
2019-02-15T07:33:15.741Z,58.97
2019-02-15T07:34:15.386Z,58.97
2019-02-15T07:35:15.453Z,58.15
2019-02-15T07:36:15.363Z,58.84
2019-02-15T07:37:15.379Z,59.28
2019-02-15T07:38:15.348Z,58.74
2019-02-15T07:39:15.333Z,58.43
2019-02-15T07:40:15.342Z,58.30
2019-02-15T07:41:15.326Z,57.89
2019-02-15T07:42:15.331Z,58.50
2019-02-15T07:43:15.287Z,57.99
2019-02-15T07:44:15.317Z,58.50
2019-02-15T07:45:15.272Z,58.61
2019-02-15T07:46:15.270Z,57.06
2019-02-15T07:47:15.295Z,58.06
2019-02-15T07:48:15.408Z,57.03
2019-02-15T07:49:15.283Z,58.27
2019-02-15T07:50:15.252Z,57.32
2019-02-15T07:51:15.214Z,57.73
2019-02-15T07:52:15.208Z,57.01
2019-02-15T07:53:15.334Z,56.90
2019-02-15T07:54:15.170Z,56.80
2019-02-15T07:55:15.155Z,57.11
2019-02-15T07:56:15.176Z,56.59
2019-02-15T07:57:15.308Z,57.09
2019-02-15T07:58:15.141Z,56.67
2019-02-15T07:59:15.733Z,56.46
2019-02-15T08:00:15.702Z,55.43
2019-02-15T08:01:15.477Z,55.23
2019-02-15T08:02:15.229Z,56.16
2019-02-15T08:03:15.087Z,55.64
2019-02-15T08:04:15.071Z,55.33
2019-02-15T08:05:15.046Z,55.00
2019-02-15T08:06:15.053Z,54.90
2019-02-15T08:07:15.022Z,55.33
2019-02-15T08:08:15.038Z,55.10
2019-02-15T08:09:15.007Z,55.93
2019-02-15T08:10:14.986Z,54.97
2019-02-15T08:11:14.974Z,54.97
2019-02-15T08:12:14.971Z,54.56
2019-02-15T08:13:14.998Z,54.53
2019-02-15T08:14:17.062Z,54.94
2019-02-15T08:15:14.935Z,53.92
2019-02-15T08:16:14.919Z,54.02
2019-02-15T08:17:14.911Z,53.92
2019-02-15T08:18:14.943Z,54.43
2019-02-15T08:19:14.884Z,54.41
2019-02-15T08:20:14.884Z,54.10
2019-02-15T08:21:14.866Z,53.48
2019-02-15T08:22:14.851Z,53.45
2019-02-15T08:23:14.865Z,53.35
2019-02-15T08:24:14.834Z,52.73
2019-02-15T08:25:14.820Z,52.81
2019-02-15T08:26:14.809Z,52.22
2019-02-15T08:27:14.797Z,52.12
2019-02-15T08:28:14.813Z,52.64
2019-02-15T08:29:14.776Z,51.99
2019-02-15T08:30:14.764Z,52.61
2019-02-15T08:31:14.753Z,52.89
2019-02-15T08:32:14.740Z,52.28
2019-02-15T08:33:14.753Z,51.97
2019-02-15T08:34:14.723Z,52.07
2019-02-15T08:35:14.706Z,51.25
2019-02-15T08:36:14.696Z,52.69
2019-02-15T08:37:14.685Z,51.74
2019-02-15T08:38:14.698Z,51.12
2019-02-15T08:39:14.671Z,50.61
2019-02-15T08:40:14.674Z,51.64
2019-02-15T08:41:14.644Z,51.72
2019-02-15T08:42:14.629Z,50.48
2019-02-15T08:43:14.656Z,50.79
2019-02-15T08:44:14.610Z,50.79
2019-02-15T08:45:14.605Z,50.79
2019-02-15T08:46:14.588Z,50.77
2019-02-15T08:47:14.576Z,50.77
2019-02-15T08:48:14.625Z,50.36
2019-02-15T08:49:14.558Z,50.77
2019-02-15T08:50:14.546Z,50.15
2019-02-15T08:51:14.537Z,50.54
2019-02-15T08:52:14.531Z,50.23
2019-02-15T08:53:14.537Z,50.02
2019-02-15T08:54:14.617Z,50.77
2019-02-15T08:55:14.544Z,50.95
2019-02-15T08:56:14.509Z,49.62
2019-02-15T08:57:14.505Z,49.39
2019-02-15T08:58:14.488Z,49.00
2019-02-15T08:59:14.461Z,49.41
2019-02-15T09:00:14.444Z,49.59
2019-02-15T09:01:14.427Z,50.42
2019-02-15T09:02:14.418Z,50.01
2019-02-15T09:03:14.430Z,49.47
2019-02-15T09:04:14.588Z,49.67
2019-02-15T09:05:14.512Z,49.77
2019-02-15T09:06:14.373Z,48.63
2019-02-15T09:07:14.361Z,48.32
2019-02-15T09:08:14.392Z,48.32
2019-02-15T09:09:14.365Z,47.99
2019-02-15T09:10:14.331Z,47.68
2019-02-15T09:11:14.348Z,47.60
2019-02-15T09:12:14.369Z,48.30
2019-02-15T09:13:14.318Z,47.35
2019-02-15T09:14:14.285Z,48.60
2019-02-15T09:15:14.302Z,47.05
2019-02-15T09:16:14.262Z,46.84
2019-02-15T09:17:14.258Z,49.27
2019-02-15T09:18:14.333Z,48.56
2019-02-15T09:19:14.245Z,48.35
2019-02-15T09:20:14.215Z,46.39
2019-02-15T09:21:14.207Z,46.19
2019-02-15T09:22:14.218Z,46.39
2019-02-15T09:23:14.191Z,46.49
2019-02-15T09:24:14.230Z,46.57
2019-02-15T09:25:14.204Z,45.17
2019-02-15T09:26:18.264Z,46.39
2019-02-15T09:27:14.149Z,45.78
2019-02-15T09:28:14.145Z,46.39
2019-02-15T09:29:14.187Z,46.08
2019-02-15T09:30:14.131Z,46.78
2019-02-15T09:31:14.118Z,46.88
2019-02-15T09:32:14.078Z,46.67
2019-02-15T09:33:14.071Z,47.60
2019-02-15T09:34:14.077Z,46.37
2019-02-15T09:35:14.048Z,46.26
2019-02-15T09:36:14.041Z,46.57
2019-02-15T09:37:14.026Z,46.16
2019-02-15T09:38:14.021Z,46.57
2019-02-15T09:39:14.021Z,46.34
2019-02-15T09:40:14.007Z,46.45
2019-02-15T09:41:13.977Z,46.04
2019-02-15T09:42:13.968Z,45.22
2019-02-15T09:43:13.958Z,46.02
2019-02-15T09:44:13.967Z,45.20
2019-02-15T09:45:13.935Z,44.87
2019-02-15T09:46:19.995Z,45.49
2019-02-15T09:47:14.906Z,45.36
2019-02-15T09:48:13.897Z,44.73
2019-02-15T09:49:13.945Z,44.93
2019-02-15T09:50:13.873Z,45.32
2019-02-15T09:51:13.861Z,44.92
2019-02-15T09:52:13.853Z,44.61
2019-02-15T09:53:13.858Z,44.22
2019-02-15T09:54:13.855Z,45.01
2019-02-15T09:55:13.816Z,44.43
2019-02-15T09:56:13.808Z,44.63
2019-02-15T09:57:13.795Z,44.71
2019-02-15T09:58:13.781Z,44.51
2019-02-15T09:59:13.798Z,44.28
2019-02-15T10:00:13.765Z,44.28
2019-02-15T10:01:13.756Z,43.14
2019-02-15T10:02:13.742Z,42.94
2019-02-15T10:03:13.742Z,43.04
2019-02-15T10:04:13.760Z,42.35
2019-02-15T10:05:13.703Z,43.37
2019-02-15T10:06:13.746Z,42.86
2019-02-15T10:07:13.688Z,42.96
2019-02-15T10:08:13.670Z,43.87
2019-02-15T10:09:13.679Z,43.75
2019-02-15T10:10:13.648Z,43.14
2019-02-15T10:11:13.660Z,43.24
2019-02-15T10:12:13.629Z,42.53
2019-02-15T10:13:13.614Z,43.12
2019-02-15T10:14:13.633Z,43.02
2019-02-15T10:15:13.604Z,41.07
2019-02-15T10:16:13.582Z,40.77
2019-02-15T10:17:13.576Z,41.88
2019-02-15T10:18:13.558Z,42.37
2019-02-15T10:19:22.002Z,40.66
2019-02-15T10:20:14.534Z,41.99
2019-02-15T10:21:13.531Z,41.56
2019-02-15T10:22:13.522Z,41.96
2019-02-15T10:23:13.517Z,42.57
2019-02-15T10:24:13.545Z,42.35
2019-02-15T10:25:13.478Z,40.91
2019-02-15T10:26:13.467Z,41.01
2019-02-15T10:27:13.457Z,41.93
2019-02-15T10:28:13.449Z,41.11
2019-02-15T10:29:13.469Z,39.69
2019-02-15T10:30:13.424Z,40.52
2019-02-15T10:31:13.412Z,41.03
2019-02-15T10:32:13.403Z,41.93
2019-02-15T10:33:13.391Z,41.01
2019-02-15T10:34:13.404Z,40.70
2019-02-15T10:35:13.369Z,40.91
2019-02-15T10:36:13.357Z,41.42
2019-02-15T10:37:13.349Z,41.21
2019-02-15T10:38:13.351Z,40.48
2019-02-15T10:39:13.350Z,40.38
2019-02-15T10:40:13.316Z,41.78
2019-02-15T10:41:13.353Z,41.56
2019-02-15T10:42:13.294Z,40.34
2019-02-15T10:43:13.287Z,40.34
2019-02-15T10:44:13.313Z,39.23
2019-02-15T10:45:13.261Z,40.75
2019-02-15T10:46:13.249Z,39.84
2019-02-15T10:47:14.464Z,39.80
2019-02-15T10:48:14.230Z,38.89
2019-02-15T10:49:13.249Z,38.89
2019-02-15T10:50:13.211Z,40.34
2019-02-15T10:51:13.210Z,39.94
2019-02-15T10:52:13.199Z,39.96
2019-02-15T10:53:13.176Z,40.34
2019-02-15T10:54:13.191Z,40.36
2019-02-15T10:55:13.158Z,40.08
2019-02-15T10:56:13.147Z,40.97
2019-02-15T10:57:13.682Z,41.05
2019-02-15T10:58:13.146Z,40.22
2019-02-15T10:59:13.137Z,39.23
2019-02-15T11:00:13.113Z,40.22
2019-02-15T11:01:13.096Z,39.94
2019-02-15T11:02:13.081Z,40.85
2019-02-15T11:03:13.067Z,40.75
2019-02-15T11:04:13.090Z,40.73
2019-02-15T11:05:13.047Z,40.89
2019-02-15T11:06:13.035Z,39.90
2019-02-15T11:07:13.027Z,38.79
2019-02-15T11:08:13.027Z,38.89
2019-02-15T11:09:13.005Z,40.91
2019-02-15T11:10:13.016Z,40.22
2019-02-15T11:11:12.986Z,40.41
2019-02-15T11:12:12.973Z,40.31
2019-02-15T11:13:12.959Z,39.60
2019-02-15T11:14:12.948Z,38.68
2019-02-15T11:15:12.963Z,39.37
2019-02-15T11:16:12.958Z,38.77
2019-02-15T11:17:12.915Z,39.17
2019-02-15T11:18:12.904Z,40.41
2019-02-15T11:19:12.894Z,39.58
2019-02-15T11:20:12.921Z,39.97
2019-02-15T11:21:12.958Z,38.04
2019-02-15T11:22:12.858Z,38.84
2019-02-15T11:23:12.853Z,38.01
2019-02-15T11:24:12.838Z,38.41
2019-02-15T11:25:12.858Z,39.24
2019-02-15T11:26:12.821Z,38.61
2019-02-15T11:27:12.815Z,38.31
2019-02-15T11:28:12.795Z,38.92
2019-02-15T11:29:12.783Z,38.93
2019-02-15T11:30:12.797Z,38.92
2019-02-15T11:31:12.763Z,38.21
2019-02-15T11:32:12.752Z,39.44
2019-02-15T11:33:12.747Z,38.33
2019-02-15T11:34:12.726Z,38.14
2019-02-15T11:35:12.750Z,40.45
2019-02-15T11:36:12.712Z,40.47
2019-02-15T11:37:12.706Z,39.86
2019-02-15T11:38:12.737Z,40.66
2019-02-15T11:39:12.684Z,39.73
2019-02-15T11:40:12.702Z,40.44
2019-02-15T11:41:12.648Z,39.62
2019-02-15T11:42:12.713Z,40.23
2019-02-15T11:43:12.632Z,38.41
2019-02-15T11:44:12.622Z,40.11
2019-02-15T11:45:12.633Z,38.88
2019-02-15T11:46:12.602Z,38.26
2019-02-15T11:47:12.586Z,37.24
2019-02-15T11:48:12.573Z,38.46
2019-02-15T11:49:12.588Z,37.84
2019-02-15T11:50:12.600Z,38.34
2019-02-15T11:51:12.551Z,37.93
2019-02-15T11:52:12.529Z,38.34
2019-02-15T11:53:12.524Z,38.62
2019-02-15T11:54:12.507Z,38.22
2019-02-15T11:55:12.530Z,37.71
2019-02-15T11:56:12.487Z,38.62
2019-02-15T11:57:12.490Z,37.82
2019-02-15T11:58:12.459Z,37.21
2019-02-15T11:59:12.484Z,38.42
2019-02-15T12:00:14.421Z,37.92
2019-02-15T12:01:12.427Z,38.20
2019-02-15T12:02:12.420Z,38.22
2019-02-15T12:03:12.448Z,37.49
2019-02-15T12:04:12.455Z,37.33
2019-02-15T12:05:12.479Z,38.44
2019-02-15T12:06:12.385Z,38.24
2019-02-15T12:07:12.395Z,38.56
2019-02-15T12:08:12.363Z,38.46
2019-02-15T12:09:12.336Z,38.04
2019-02-15T12:10:12.412Z,38.13
2019-02-15T12:11:12.315Z,38.13
2019-02-15T12:12:12.313Z,38.46
2019-02-15T12:13:12.291Z,38.34
2019-02-15T12:14:12.278Z,37.84
2019-02-15T12:15:12.306Z,37.21
2019-02-15T12:16:12.269Z,38.04
2019-02-15T12:17:12.248Z,38.32
2019-02-15T12:18:12.242Z,37.92
2019-02-15T12:19:12.226Z,38.10
2019-02-15T12:20:12.238Z,37.98
2019-02-15T12:21:12.201Z,37.49
2019-02-15T12:22:12.190Z,38.32
2019-02-15T12:23:12.185Z,37.49
2019-02-15T12:24:12.167Z,38.10
2019-02-15T12:25:12.194Z,36.79
2019-02-15T12:26:12.147Z,37.58
2019-02-15T12:27:12.135Z,35.99
2019-02-15T12:28:12.122Z,36.81
2019-02-15T12:29:12.112Z,36.99
2019-02-15T12:30:12.128Z,37.96
2019-02-15T12:31:12.094Z,37.23
2019-02-15T12:32:12.079Z,37.02
2019-02-15T12:33:12.072Z,35.82
2019-02-15T12:34:12.056Z,35.75
2019-02-15T12:35:12.069Z,36.86
2019-02-15T12:36:12.034Z,37.96
2019-02-15T12:37:12.021Z,36.24
2019-02-15T12:38:12.010Z,36.82
2019-02-15T12:39:14.254Z,36.00
2019-02-15T12:40:12.012Z,36.29
2019-02-15T12:41:11.977Z,35.55
2019-02-15T12:42:11.965Z,35.25
2019-02-15T12:43:11.955Z,35.53
2019-02-15T12:44:11.946Z,35.51
2019-02-15T12:45:11.981Z,35.31
2019-02-15T12:46:11.963Z,34.24
2019-02-15T12:47:15.115Z,34.81
2019-02-15T12:48:11.898Z,33.71
2019-02-15T12:49:11.890Z,34.12
2019-02-15T12:50:11.878Z,35.14
2019-02-15T12:51:11.906Z,34.14
2019-02-15T12:52:11.857Z,34.96